Terminal Aerodrome Forecast
Issued by NWS

Home | Current Version | Previous Version | Text Only | Print | Product List | Glossary On
Versions: 1 2 3 4 5 6 7 8 9 10 11 12 13 14 15 16
000
FTUS41 KLWX 031729
TAFMTN
TAF
KMTN 031729Z 0318/0418 14005KT P6SM SCT050 BKN200
     FM040700 11005KT P6SM -SHRA OVC060
     FM041000 09006KT 4SM -SHRA OVC050
     FM041300 09007KT 3SM -SHRA OVC035
     FM041700 36007KT 3SM -SHRA OVC030=

USA.gov is the U.S. government's official web portal to all federal, state and local government web resources and services.